Brandon, Wisconsin
Current Conditions -  °F | °C
As of 3:27 AM on Monday 24 Nov 2014 (Local Time) from KFLD Reporting Station
Light Rain Light Rain  
Wind Chill:   Ceiling: 500
Heat Index:   Visibility: 2mi
Dew Point:   Wind: 3mph
Humidity: 93%   Direction: 260°W
Pressure: 29.04"   Gusts: NA
Location:  43.74°N, 88.78°W
Report Text: KFLD 240927Z AUTO 26003KT 2SM -RA BR OVC005 06/05 A2904 RMK AO2 P0000 T00610050
Loading
Personal Weather Stations






























Interactive Weather Map New forecast layout! Learn more

10-Day Weather Forecast

Advertisements
Track Severe Weather on mobile